Airfield :
LOGIN :

Register | Disclaimer

   EN    FR    IT 

 










Legend :    VFR   Marginal VFR   IFR   Intensive IFR   Very Intensive IFR
Visi :
Ceiling :
>= 8 km
>= 3000ft
5 to 8 km
1000 to 3000 ft
1500m to 5 km
500 to 1000 ft
800 to 1500m
200 to 500 ft
< 800m
< 200 ft
Symbols :   Thunderstorms  Fog  Heavy snow  Heavy precipitations  Wind > 20 kt
SIGMETs :     Misc.  Thunderstorms  Icing  Turbulence  Mountain Waves  Volcanic Ashes







- Airport Elevation : 170 ft
- IATA code : KRP


EKKA - Karup

CURRENT METAR :
  • 260250Z AUTO 23009KT 4000 -SHRA BKN006/// 10/09 Q1007

EXPIRED METARs :
  • 260238Z AUTO 23010KT 4800 -SHRA BR BKN009/// BKN038/// 10/09 Q1007
  • 260229Z AUTO 23008KT 4300 -SHRA BR BKN009/// 10/09 Q1007
  • 260220Z AUTO 23010KT 4900 -SHRA BKN011/// 10/08 Q1007
  • 260150Z AUTO 24011KT 8000 -SHRA BKN009/// 10/08 Q1008
  • 260120Z AUTO 24011KT 4500 -SHRA BKN014/// 10/08 Q1008
  • 260112Z AUTO 24012KT 7000 -SHRA FEW014/// BKN029/// 10/08 Q1008
  • 260050Z AUTO 24012KT 9999 OVC017/// 10/07 Q1009
  • 260020Z AUTO 25014KT 9999 OVC016/// 10/07 Q1009

TAF TAF EKKA
Valid from the 26 at 03:00 until the 27 at 03:00 UTC


260221Z 2603/2703 25015KT 9999 BKN020
TEMPO 2603/2608 27012G22KT 4000 -RADZ BKN008
TEMPO 2608/2615 27010G22KT
BECMG 2618/2620 VRB04KT
TEMPO 2618/2703 4000 -RADZ BR BKN008
No reported NOTAMs for that airfield.



MET'MAP, your aeronautical weather chart ! - Copyright ORBIFLY December 2007 - Disclaimer

ORBIFLY MET'MAP TEAM :

Programming & Development : Alexandra Zaïnal
Concept & Development : Baudouin d'Aumeries
Co-Development & Prog : Marc-Olivier Méhu
Technical & hardware support : Manuel Goepfert

Contact : metmap@orbifly.com




SOURCES & CREDITS :

   NOAA